sensor_id;sensor_type;location;lat;lon;timestamp;P1;durP1;ratioP1;P2;durP2;ratioP2
5690;SDS011;2870;42.680;23.364;2022-08-14T00:02:27;43.00;;;22.27;;
5690;SDS011;2870;42.680;23.364;2022-08-14T00:04:53;34.57;;;22.20;;
5690;SDS011;2870;42.680;23.364;2022-08-14T00:07:21;32.37;;;22.13;;
5690;SDS011;2870;42.680;23.364;2022-08-14T00:09:48;29.23;;;21.00;;
5690;SDS011;2870;42.680;23.364;2022-08-14T00:12:14;39.60;;;22.40;;
5690;SDS011;2870;42.680;23.364;2022-08-14T00:14:41;30.23;;;21.30;;
5690;SDS011;2870;42.680;23.364;2022-08-14T00:17:08;36.50;;;20.40;;
5690;SDS011;2870;42.680;23.364;2022-08-14T00:19:37;33.57;;;20.53;;
5690;SDS011;2870;42.680;23.364;2022-08-14T00:22:04;30.17;;;22.23;;
5690;SDS011;2870;42.680;23.364;2022-08-14T00:24:30;34.93;;;21.90;;
5690;SDS011;2870;42.680;23.364;2022-08-14T00:26:57;28.37;;;19.20;;
5690;SDS011;2870;42.680;23.364;2022-08-14T00:29:25;24.90;;;18.23;;
5690;SDS011;2870;42.680;23.364;2022-08-14T00:31:52;25.53;;;17.83;;
5690;SDS011;2870;42.680;23.364;2022-08-14T00:34:19;26.70;;;18.93;;
5690;SDS011;2870;42.680;23.364;2022-08-14T00:36:47;29.23;;;19.93;;
5690;SDS011;2870;42.680;23.364;2022-08-14T00:39:14;30.77;;;18.93;;
5690;SDS011;2870;42.680;23.364;2022-08-14T00:41:41;32.43;;;18.70;;
5690;SDS011;2870;42.680;23.364;2022-08-14T00:44:08;29.50;;;18.50;;
5690;SDS011;2870;42.680;23.364;2022-08-14T00:46:35;26.57;;;18.93;;
5690;SDS011;2870;42.680;23.364;2022-08-14T00:49:02;29.80;;;19.07;;
5690;SDS011;2870;42.680;23.364;2022-08-14T00:51:29;31.73;;;19.80;;
5690;SDS011;2870;42.680;23.364;2022-08-14T00:53:59;31.60;;;19.50;;
5690;SDS011;2870;42.680;23.364;2022-08-14T00:56:26;27.47;;;19.37;;
5690;SDS011;2870;42.680;23.364;2022-08-14T00:58:53;28.93;;;20.17;;
5690;SDS011;2870;42.680;23.364;2022-08-14T01:01:22;31.50;;;20.33;;
5690;SDS011;2870;42.680;23.364;2022-08-14T01:03:49;36.63;;;21.63;;
5690;SDS011;2870;42.680;23.364;2022-08-14T01:06:18;26.87;;;19.13;;
5690;SDS011;2870;42.680;23.364;2022-08-14T01:08:45;27.50;;;19.20;;
5690;SDS011;2870;42.680;23.364;2022-08-14T01:11:15;34.53;;;19.73;;
5690;SDS011;2870;42.680;23.364;2022-08-14T01:13:43;28.23;;;19.60;;
5690;SDS011;2870;42.680;23.364;2022-08-14T01:16:11;29.20;;;19.33;;
5690;SDS011;2870;42.680;23.364;2022-08-14T01:18:40;28.17;;;20.23;;
5690;SDS011;2870;42.680;23.364;2022-08-14T01:21:25;29.73;;;19.07;;
5690;SDS011;2870;42.680;23.364;2022-08-14T01:23:56;28.30;;;20.00;;
5690;SDS011;2870;42.680;23.364;2022-08-14T01:26:24;29.93;;;20.00;;
5690;SDS011;2870;42.680;23.364;2022-08-14T01:28:52;28.27;;;18.10;;
5690;SDS011;2870;42.680;23.364;2022-08-14T01:31:22;27.90;;;18.17;;
5690;SDS011;2870;42.680;23.364;2022-08-14T01:33:51;29.63;;;16.90;;
5690;SDS011;2870;42.680;23.364;2022-08-14T01:36:20;24.60;;;18.10;;
5690;SDS011;2870;42.680;23.364;2022-08-14T01:38:50;28.30;;;18.27;;
5690;SDS011;2870;42.680;23.364;2022-08-14T01:41:19;29.93;;;18.10;;
5690;SDS011;2870;42.680;23.364;2022-08-14T01:43:48;26.47;;;18.90;;
5690;SDS011;2870;42.680;23.364;2022-08-14T01:46:16;26.40;;;17.20;;
5690;SDS011;2870;42.680;23.364;2022-08-14T01:48:44;29.17;;;19.67;;
5690;SDS011;2870;42.680;23.364;2022-08-14T01:51:13;26.77;;;18.87;;
5690;SDS011;2870;42.680;23.364;2022-08-14T01:53:45;25.97;;;18.40;;
5690;SDS011;2870;42.680;23.364;2022-08-14T01:56:15;22.50;;;16.83;;
5690;SDS011;2870;42.680;23.364;2022-08-14T01:58:43;26.37;;;18.73;;
5690;SDS011;2870;42.680;23.364;2022-08-14T02:01:11;32.23;;;17.27;;
5690;SDS011;2870;42.680;23.364;2022-08-14T02:03:39;25.27;;;17.50;;
5690;SDS011;2870;42.680;23.364;2022-08-14T02:06:07;28.83;;;18.10;;
5690;SDS011;2870;42.680;23.364;2022-08-14T02:08:35;29.27;;;17.73;;
5690;SDS011;2870;42.680;23.364;2022-08-14T02:11:06;23.93;;;17.10;;
5690;SDS011;2870;42.680;23.364;2022-08-14T02:13:48;22.33;;;15.87;;
5690;SDS011;2870;42.680;23.364;2022-08-14T02:16:20;25.07;;;17.93;;
5690;SDS011;2870;42.680;23.364;2022-08-14T02:18:49;25.50;;;17.10;;
5690;SDS011;2870;42.680;23.364;2022-08-14T02:21:17;26.90;;;17.67;;
5690;SDS011;2870;42.680;23.364;2022-08-14T02:23:45;26.43;;;17.20;;
5690;SDS011;2870;42.680;23.364;2022-08-14T02:26:13;28.60;;;17.10;;
5690;SDS011;2870;42.680;23.364;2022-08-14T02:28:42;23.50;;;16.67;;
5690;SDS011;2870;42.680;23.364;2022-08-14T02:31:11;24.43;;;17.77;;
5690;SDS011;2870;42.680;23.364;2022-08-14T02:33:38;29.33;;;18.20;;
5690;SDS011;2870;42.680;23.364;2022-08-14T02:36:07;34.03;;;19.27;;
5690;SDS011;2870;42.680;23.364;2022-08-14T02:38:35;27.83;;;18.37;;
5690;SDS011;2870;42.680;23.364;2022-08-14T02:41:03;30.23;;;19.10;;
5690;SDS011;2870;42.680;23.364;2022-08-14T02:43:33;30.53;;;17.90;;
5690;SDS011;2870;42.680;23.364;2022-08-14T02:46:00;28.07;;;17.40;;
5690;SDS011;2870;42.680;23.364;2022-08-14T02:48:29;29.40;;;18.27;;
5690;SDS011;2870;42.680;23.364;2022-08-14T02:51:00;30.90;;;19.30;;
5690;SDS011;2870;42.680;23.364;2022-08-14T02:53:29;31.83;;;19.57;;
5690;SDS011;2870;42.680;23.364;2022-08-14T02:55:56;29.93;;;19.47;;
5690;SDS011;2870;42.680;23.364;2022-08-14T02:58:23;29.03;;;19.43;;
5690;SDS011;2870;42.680;23.364;2022-08-14T03:00:51;32.20;;;21.03;;
5690;SDS011;2870;42.680;23.364;2022-08-14T03:03:18;33.47;;;21.30;;
5690;SDS011;2870;42.680;23.364;2022-08-14T03:05:50;33.77;;;21.27;;
5690;SDS011;2870;42.680;23.364;2022-08-14T03:08:20;41.40;;;23.80;;
5690;SDS011;2870;42.680;23.364;2022-08-14T03:10:47;52.17;;;26.60;;
5690;SDS011;2870;42.680;23.364;2022-08-14T03:13:14;49.33;;;27.17;;
5690;SDS011;2870;42.680;23.364;2022-08-14T03:15:42;38.97;;;22.40;;
5690;SDS011;2870;42.680;23.364;2022-08-14T03:18:11;41.03;;;22.30;;
5690;SDS011;2870;42.680;23.364;2022-08-14T03:20:39;26.90;;;18.30;;
5690;SDS011;2870;42.680;23.364;2022-08-14T03:23:07;31.13;;;20.77;;
5690;SDS011;2870;42.680;23.364;2022-08-14T03:25:33;34.97;;;21.50;;
5690;SDS011;2870;42.680;23.364;2022-08-14T03:28:02;33.90;;;21.70;;
5690;SDS011;2870;42.680;23.364;2022-08-14T03:30:31;43.90;;;22.50;;
5690;SDS011;2870;42.680;23.364;2022-08-14T03:32:59;39.23;;;24.67;;
5690;SDS011;2870;42.680;23.364;2022-08-14T03:35:26;42.97;;;25.70;;
5690;SDS011;2870;42.680;23.364;2022-08-14T03:37:55;43.30;;;25.67;;
5690;SDS011;2870;42.680;23.364;2022-08-14T03:40:30;43.90;;;23.73;;
5690;SDS011;2870;42.680;23.364;2022-08-14T03:42:57;43.70;;;25.03;;
5690;SDS011;2870;42.680;23.364;2022-08-14T03:45:24;42.43;;;25.03;;
5690;SDS011;2870;42.680;23.364;2022-08-14T03:47:51;40.90;;;23.73;;
5690;SDS011;2870;42.680;23.364;2022-08-14T03:50:17;37.77;;;23.87;;
5690;SDS011;2870;42.680;23.364;2022-08-14T03:52:45;52.83;;;23.60;;
5690;SDS011;2870;42.680;23.364;2022-08-14T03:55:12;38.10;;;23.50;;
5690;SDS011;2870;42.680;23.364;2022-08-14T03:57:40;37.17;;;23.13;;
5690;SDS011;2870;42.680;23.364;2022-08-14T04:00:08;38.23;;;24.70;;
5690;SDS011;2870;42.680;23.364;2022-08-14T04:02:37;48.90;;;24.53;;
5690;SDS011;2870;42.680;23.364;2022-08-14T04:05:05;41.20;;;23.93;;
5690;SDS011;2870;42.680;23.364;2022-08-14T04:07:33;37.67;;;21.50;;
5690;SDS011;2870;42.680;23.364;2022-08-14T04:10:03;37.27;;;22.03;;
5690;SDS011;2870;42.680;23.364;2022-08-14T04:12:31;43.33;;;22.57;;
5690;SDS011;2870;42.680;23.364;2022-08-14T04:15:02;40.80;;;23.87;;
5690;SDS011;2870;42.680;23.364;2022-08-14T04:17:30;37.20;;;22.60;;
5690;SDS011;2870;42.680;23.364;2022-08-14T04:19:57;36.70;;;22.20;;
5690;SDS011;2870;42.680;23.364;2022-08-14T04:22:30;48.30;;;26.10;;
5690;SDS011;2870;42.680;23.364;2022-08-14T04:24:57;44.30;;;25.73;;
5690;SDS011;2870;42.680;23.364;2022-08-14T04:27:25;50.20;;;27.80;;
5690;SDS011;2870;42.680;23.364;2022-08-14T04:29:52;47.53;;;25.23;;
5690;SDS011;2870;42.680;23.364;2022-08-14T04:32:23;44.97;;;26.73;;
5690;SDS011;2870;42.680;23.364;2022-08-14T04:34:51;50.77;;;26.27;;
5690;SDS011;2870;42.680;23.364;2022-08-14T04:37:19;40.80;;;24.47;;
5690;SDS011;2870;42.680;23.364;2022-08-14T04:40:05;54.10;;;26.13;;
5690;SDS011;2870;42.680;23.364;2022-08-14T04:42:58;46.03;;;24.07;;
5690;SDS011;2870;42.680;23.364;2022-08-14T04:45:43;44.20;;;25.47;;
5690;SDS011;2870;42.680;23.364;2022-08-14T04:48:12;41.90;;;23.97;;
5690;SDS011;2870;42.680;23.364;2022-08-14T04:50:39;46.60;;;25.63;;
5690;SDS011;2870;42.680;23.364;2022-08-14T04:53:07;45.93;;;25.60;;
5690;SDS011;2870;42.680;23.364;2022-08-14T04:55:37;47.57;;;24.37;;
5690;SDS011;2870;42.680;23.364;2022-08-14T04:58:04;37.93;;;23.40;;
5690;SDS011;2870;42.680;23.364;2022-08-14T05:00:31;51.63;;;25.60;;
5690;SDS011;2870;42.680;23.364;2022-08-14T05:02:58;52.67;;;27.37;;
5690;SDS011;2870;42.680;23.364;2022-08-14T05:05:29;50.87;;;26.37;;
5690;SDS011;2870;42.680;23.364;2022-08-14T05:07:56;51.00;;;28.67;;
5690;SDS011;2870;42.680;23.364;2022-08-14T05:10:33;50.37;;;28.70;;
5690;SDS011;2870;42.680;23.364;2022-08-14T05:13:00;47.90;;;30.33;;
5690;SDS011;2870;42.680;23.364;2022-08-14T05:15:29;46.03;;;28.53;;
5690;SDS011;2870;42.680;23.364;2022-08-14T05:17:57;47.73;;;27.03;;
5690;SDS011;2870;42.680;23.364;2022-08-14T05:20:26;48.63;;;30.20;;
5690;SDS011;2870;42.680;23.364;2022-08-14T05:22:55;48.00;;;28.93;;
5690;SDS011;2870;42.680;23.364;2022-08-14T05:25:23;46.03;;;28.87;;
5690;SDS011;2870;42.680;23.364;2022-08-14T05:27:50;44.17;;;28.80;;
5690;SDS011;2870;42.680;23.364;2022-08-14T05:30:17;49.23;;;28.67;;
5690;SDS011;2870;42.680;23.364;2022-08-14T05:32:44;44.60;;;28.00;;
5690;SDS011;2870;42.680;23.364;2022-08-14T05:35:11;40.53;;;27.83;;
5690;SDS011;2870;42.680;23.364;2022-08-14T05:37:38;44.50;;;27.80;;
5690;SDS011;2870;42.680;23.364;2022-08-14T05:40:08;41.50;;;27.30;;
5690;SDS011;2870;42.680;23.364;2022-08-14T05:42:35;41.47;;;27.70;;
5690;SDS011;2870;42.680;23.364;2022-08-14T05:45:03;40.63;;;25.60;;
5690;SDS011;2870;42.680;23.364;2022-08-14T05:47:32;45.23;;;26.10;;
5690;SDS011;2870;42.680;23.364;2022-08-14T05:50:04;41.70;;;24.67;;
5690;SDS011;2870;42.680;23.364;2022-08-14T05:52:32;38.37;;;24.20;;
5690;SDS011;2870;42.680;23.364;2022-08-14T05:54:58;38.37;;;24.90;;
5690;SDS011;2870;42.680;23.364;2022-08-14T05:57:27;43.20;;;25.40;;
5690;SDS011;2870;42.680;23.364;2022-08-14T05:59:53;34.70;;;22.90;;
5690;SDS011;2870;42.680;23.364;2022-08-14T06:02:20;36.47;;;23.40;;
5690;SDS011;2870;42.680;23.364;2022-08-14T06:04:47;33.27;;;25.10;;
5690;SDS011;2870;42.680;23.364;2022-08-14T06:07:14;36.03;;;24.90;;
5690;SDS011;2870;42.680;23.364;2022-08-14T06:09:41;37.87;;;23.67;;
5690;SDS011;2870;42.680;23.364;2022-08-14T06:12:08;46.03;;;24.53;;
5690;SDS011;2870;42.680;23.364;2022-08-14T06:14:36;36.07;;;24.30;;
5690;SDS011;2870;42.680;23.364;2022-08-14T06:17:03;36.43;;;25.00;;
5690;SDS011;2870;42.680;23.364;2022-08-14T06:19:30;42.00;;;25.90;;
5690;SDS011;2870;42.680;23.364;2022-08-14T06:21:57;36.30;;;23.70;;
5690;SDS011;2870;42.680;23.364;2022-08-14T06:24:23;36.40;;;24.77;;
5690;SDS011;2870;42.680;23.364;2022-08-14T06:26:50;34.43;;;23.23;;
5690;SDS011;2870;42.680;23.364;2022-08-14T06:29:17;29.97;;;23.20;;
5690;SDS011;2870;42.680;23.364;2022-08-14T06:31:45;31.10;;;23.50;;
5690;SDS011;2870;42.680;23.364;2022-08-14T06:34:12;33.77;;;23.20;;
5690;SDS011;2870;42.680;23.364;2022-08-14T06:36:39;38.23;;;24.17;;
5690;SDS011;2870;42.680;23.364;2022-08-14T06:39:06;34.90;;;25.50;;
5690;SDS011;2870;42.680;23.364;2022-08-14T06:41:33;34.40;;;24.47;;
5690;SDS011;2870;42.680;23.364;2022-08-14T06:44:00;37.30;;;24.10;;
5690;SDS011;2870;42.680;23.364;2022-08-14T06:46:27;32.70;;;24.60;;
5690;SDS011;2870;42.680;23.364;2022-08-14T06:48:56;31.97;;;23.33;;
5690;SDS011;2870;42.680;23.364;2022-08-14T06:51:23;30.53;;;22.73;;
5690;SDS011;2870;42.680;23.364;2022-08-14T06:53:49;35.07;;;22.90;;
5690;SDS011;2870;42.680;23.364;2022-08-14T06:56:16;34.60;;;26.70;;
5690;SDS011;2870;42.680;23.364;2022-08-14T06:58:43;39.13;;;23.10;;
5690;SDS011;2870;42.680;23.364;2022-08-14T07:01:10;31.93;;;24.10;;
5690;SDS011;2870;42.680;23.364;2022-08-14T07:03:55;41.93;;;27.90;;
5690;SDS011;2870;42.680;23.364;2022-08-14T07:06:41;32.43;;;24.00;;
5690;SDS011;2870;42.680;23.364;2022-08-14T07:09:08;33.43;;;23.60;;
5690;SDS011;2870;42.680;23.364;2022-08-14T07:11:35;32.10;;;24.60;;
5690;SDS011;2870;42.680;23.364;2022-08-14T07:14:02;34.17;;;24.67;;
5690;SDS011;2870;42.680;23.364;2022-08-14T07:16:29;37.23;;;26.73;;
5690;SDS011;2870;42.680;23.364;2022-08-14T07:18:58;33.70;;;23.70;;
5690;SDS011;2870;42.680;23.364;2022-08-14T07:21:24;35.40;;;24.00;;
5690;SDS011;2870;42.680;23.364;2022-08-14T07:23:51;36.73;;;24.37;;
5690;SDS011;2870;42.680;23.364;2022-08-14T07:26:18;31.87;;;23.67;;
5690;SDS011;2870;42.680;23.364;2022-08-14T07:28:45;35.23;;;24.10;;
5690;SDS011;2870;42.680;23.364;2022-08-14T07:31:12;39.17;;;24.60;;
5690;SDS011;2870;42.680;23.364;2022-08-14T07:33:39;33.50;;;22.83;;
5690;SDS011;2870;42.680;23.364;2022-08-14T07:36:11;34.07;;;22.80;;
5690;SDS011;2870;42.680;23.364;2022-08-14T07:38:40;30.67;;;23.33;;
5690;SDS011;2870;42.680;23.364;2022-08-14T07:41:08;35.93;;;24.27;;
5690;SDS011;2870;42.680;23.364;2022-08-14T07:43:36;36.80;;;24.03;;
5690;SDS011;2870;42.680;23.364;2022-08-14T07:46:04;32.50;;;23.80;;
5690;SDS011;2870;42.680;23.364;2022-08-14T07:48:35;27.80;;;21.73;;
5690;SDS011;2870;42.680;23.364;2022-08-14T07:51:04;29.03;;;21.23;;
5690;SDS011;2870;42.680;23.364;2022-08-14T07:53:33;29.67;;;20.60;;
5690;SDS011;2870;42.680;23.364;2022-08-14T07:56:00;23.20;;;19.20;;
5690;SDS011;2870;42.680;23.364;2022-08-14T07:58:27;28.37;;;20.57;;
5690;SDS011;2870;42.680;23.364;2022-08-14T08:00:54;31.50;;;19.90;;
5690;SDS011;2870;42.680;23.364;2022-08-14T08:03:21;26.60;;;20.30;;
5690;SDS011;2870;42.680;23.364;2022-08-14T08:05:51;21.37;;;15.53;;
5690;SDS011;2870;42.680;23.364;2022-08-14T08:08:18;21.63;;;16.80;;
5690;SDS011;2870;42.680;23.364;2022-08-14T08:10:47;25.30;;;18.80;;
5690;SDS011;2870;42.680;23.364;2022-08-14T08:13:16;29.17;;;18.40;;
5690;SDS011;2870;42.680;23.364;2022-08-14T08:15:46;24.87;;;17.40;;
5690;SDS011;2870;42.680;23.364;2022-08-14T08:18:16;20.13;;;15.23;;
5690;SDS011;2870;42.680;23.364;2022-08-14T08:20:43;19.10;;;14.37;;
5690;SDS011;2870;42.680;23.364;2022-08-14T08:23:12;13.90;;;10.53;;
5690;SDS011;2870;42.680;23.364;2022-08-14T08:25:41;13.53;;;9.43;;
5690;SDS011;2870;42.680;23.364;2022-08-14T08:28:14;14.37;;;7.83;;
5690;SDS011;2870;42.680;23.364;2022-08-14T08:30:44;10.50;;;7.80;;
5690;SDS011;2870;42.680;23.364;2022-08-14T08:33:13;10.97;;;8.20;;
5690;SDS011;2870;42.680;23.364;2022-08-14T08:35:41;9.30;;;7.67;;
5690;SDS011;2870;42.680;23.364;2022-08-14T08:38:09;9.87;;;7.87;;
5690;SDS011;2870;42.680;23.364;2022-08-14T08:40:39;11.20;;;8.50;;
5690;SDS011;2870;42.680;23.364;2022-08-14T08:43:08;11.40;;;8.70;;
5690;SDS011;2870;42.680;23.364;2022-08-14T08:45:51;11.73;;;9.10;;
5690;SDS011;2870;42.680;23.364;2022-08-14T08:48:20;11.43;;;8.80;;
5690;SDS011;2870;42.680;23.364;2022-08-14T08:50:48;13.03;;;9.73;;
5690;SDS011;2870;42.680;23.364;2022-08-14T08:53:15;13.23;;;9.13;;
5690;SDS011;2870;42.680;23.364;2022-08-14T08:55:43;13.23;;;9.00;;
5690;SDS011;2870;42.680;23.364;2022-08-14T08:58:11;10.60;;;8.70;;
5690;SDS011;2870;42.680;23.364;2022-08-14T09:00:41;12.50;;;8.93;;
5690;SDS011;2870;42.680;23.364;2022-08-14T09:03:11;10.47;;;8.77;;
5690;SDS011;2870;42.680;23.364;2022-08-14T09:05:48;11.37;;;8.50;;
5690;SDS011;2870;42.680;23.364;2022-08-14T09:08:17;13.80;;;9.47;;
5690;SDS011;2870;42.680;23.364;2022-08-14T09:10:45;14.10;;;9.50;;
5690;SDS011;2870;42.680;23.364;2022-08-14T09:13:13;14.10;;;10.10;;
5690;SDS011;2870;42.680;23.364;2022-08-14T09:15:41;10.40;;;8.80;;
5690;SDS011;2870;42.680;23.364;2022-08-14T09:18:10;11.60;;;9.60;;
5690;SDS011;2870;42.680;23.364;2022-08-14T09:20:39;12.27;;;9.80;;
5690;SDS011;2870;42.680;23.364;2022-08-14T09:23:07;8.97;;;7.70;;
5690;SDS011;2870;42.680;23.364;2022-08-14T09:25:35;11.43;;;8.30;;
5690;SDS011;2870;42.680;23.364;2022-08-14T09:28:05;11.70;;;8.77;;
5690;SDS011;2870;42.680;23.364;2022-08-14T09:30:35;10.60;;;8.77;;
5690;SDS011;2870;42.680;23.364;2022-08-14T09:33:25;13.63;;;8.63;;
5690;SDS011;2870;42.680;23.364;2022-08-14T09:39:04;12.10;;;8.90;;
5690;SDS011;2870;42.680;23.364;2022-08-14T09:41:42;10.20;;;8.60;;
5690;SDS011;2870;42.680;23.364;2022-08-14T09:44:27;11.67;;;8.20;;
5690;SDS011;2870;42.680;23.364;2022-08-14T09:47:11;9.80;;;7.47;;
5690;SDS011;2870;42.680;23.364;2022-08-14T09:49:41;11.20;;;8.53;;
5690;SDS011;2870;42.680;23.364;2022-08-14T09:52:09;12.60;;;8.43;;
5690;SDS011;2870;42.680;23.364;2022-08-14T09:54:37;9.30;;;7.47;;
5690;SDS011;2870;42.680;23.364;2022-08-14T09:57:07;12.30;;;9.80;;
5690;SDS011;2870;42.680;23.364;2022-08-14T09:59:38;10.50;;;8.50;;
5690;SDS011;2870;42.680;23.364;2022-08-14T10:02:17;10.60;;;8.40;;
5690;SDS011;2870;42.680;23.364;2022-08-14T10:04:57;11.13;;;6.90;;
5690;SDS011;2870;42.680;23.364;2022-08-14T10:07:28;9.97;;;7.10;;
5690;SDS011;2870;42.680;23.364;2022-08-14T10:09:56;8.20;;;6.40;;
5690;SDS011;2870;42.680;23.364;2022-08-14T10:12:24;9.03;;;6.83;;
5690;SDS011;2870;42.680;23.364;2022-08-14T10:14:54;9.27;;;6.93;;
5690;SDS011;2870;42.680;23.364;2022-08-14T10:17:22;9.60;;;7.60;;
5690;SDS011;2870;42.680;23.364;2022-08-14T10:19:54;9.90;;;7.27;;
5690;SDS011;2870;42.680;23.364;2022-08-14T10:22:24;9.90;;;7.87;;
5690;SDS011;2870;42.680;23.364;2022-08-14T10:24:54;10.50;;;7.77;;
5690;SDS011;2870;42.680;23.364;2022-08-14T10:27:21;9.67;;;7.73;;
5690;SDS011;2870;42.680;23.364;2022-08-14T10:29:51;10.10;;;7.13;;
5690;SDS011;2870;42.680;23.364;2022-08-14T10:32:19;9.43;;;6.80;;
5690;SDS011;2870;42.680;23.364;2022-08-14T10:34:47;9.17;;;7.13;;
5690;SDS011;2870;42.680;23.364;2022-08-14T10:37:17;8.07;;;6.07;;
5690;SDS011;2870;42.680;23.364;2022-08-14T10:39:58;9.70;;;6.70;;
5690;SDS011;2870;42.680;23.364;2022-08-14T10:42:33;7.60;;;6.40;;
5690;SDS011;2870;42.680;23.364;2022-08-14T10:45:01;12.27;;;6.43;;
5690;SDS011;2870;42.680;23.364;2022-08-14T10:47:32;8.97;;;7.03;;
5690;SDS011;2870;42.680;23.364;2022-08-14T10:50:01;8.10;;;6.37;;
5690;SDS011;2870;42.680;23.364;2022-08-14T10:52:30;9.80;;;6.37;;
5690;SDS011;2870;42.680;23.364;2022-08-14T10:55:06;8.47;;;6.53;;
5690;SDS011;2870;42.680;23.364;2022-08-14T10:57:45;10.20;;;6.80;;
5690;SDS011;2870;42.680;23.364;2022-08-14T11:00:14;8.37;;;6.30;;
5690;SDS011;2870;42.680;23.364;2022-08-14T11:02:43;14.03;;;6.93;;
5690;SDS011;2870;42.680;23.364;2022-08-14T11:05:10;8.77;;;6.30;;
5690;SDS011;2870;42.680;23.364;2022-08-14T11:07:41;8.50;;;6.60;;
5690;SDS011;2870;42.680;23.364;2022-08-14T11:10:09;7.73;;;6.47;;
5690;SDS011;2870;42.680;23.364;2022-08-14T11:12:40;10.13;;;5.90;;
5690;SDS011;2870;42.680;23.364;2022-08-14T11:15:10;7.73;;;6.10;;
5690;SDS011;2870;42.680;23.364;2022-08-14T11:17:38;10.67;;;6.27;;
5690;SDS011;2870;42.680;23.364;2022-08-14T11:20:05;9.93;;;7.37;;
5690;SDS011;2870;42.680;23.364;2022-08-14T11:22:34;8.80;;;7.10;;
5690;SDS011;2870;42.680;23.364;2022-08-14T11:25:07;9.27;;;7.40;;
5690;SDS011;2870;42.680;23.364;2022-08-14T11:27:35;8.70;;;6.67;;
5690;SDS011;2870;42.680;23.364;2022-08-14T11:30:05;7.80;;;6.53;;
5690;SDS011;2870;42.680;23.364;2022-08-14T11:32:34;8.33;;;6.40;;
5690;SDS011;2870;42.680;23.364;2022-08-14T11:35:03;8.53;;;6.10;;
5690;SDS011;2870;42.680;23.364;2022-08-14T11:37:31;8.03;;;6.40;;
5690;SDS011;2870;42.680;23.364;2022-08-14T11:39:59;12.30;;;6.50;;
5690;SDS011;2870;42.680;23.364;2022-08-14T11:42:27;7.33;;;6.10;;
5690;SDS011;2870;42.680;23.364;2022-08-14T11:44:58;11.07;;;6.93;;
5690;SDS011;2870;42.680;23.364;2022-08-14T11:47:30;12.20;;;7.10;;
5690;SDS011;2870;42.680;23.364;2022-08-14T11:49:57;9.90;;;7.83;;
5690;SDS011;2870;42.680;23.364;2022-08-14T11:52:32;9.00;;;6.83;;
5690;SDS011;2870;42.680;23.364;2022-08-14T11:55:01;9.17;;;7.63;;
5690;SDS011;2870;42.680;23.364;2022-08-14T11:57:34;10.50;;;7.30;;
5690;SDS011;2870;42.680;23.364;2022-08-14T12:00:02;8.37;;;7.30;;
5690;SDS011;2870;42.680;23.364;2022-08-14T12:02:31;9.10;;;6.90;;
5690;SDS011;2870;42.680;23.364;2022-08-14T12:04:58;9.13;;;6.80;;
5690;SDS011;2870;42.680;23.364;2022-08-14T12:07:25;8.23;;;7.17;;
5690;SDS011;2870;42.680;23.364;2022-08-14T12:09:53;8.60;;;6.60;;
5690;SDS011;2870;42.680;23.364;2022-08-14T12:12:22;8.27;;;7.00;;
5690;SDS011;2870;42.680;23.364;2022-08-14T12:14:52;8.53;;;7.00;;
5690;SDS011;2870;42.680;23.364;2022-08-14T12:17:21;9.50;;;6.70;;
5690;SDS011;2870;42.680;23.364;2022-08-14T12:19:49;8.50;;;6.70;;
5690;SDS011;2870;42.680;23.364;2022-08-14T12:22:18;9.70;;;7.77;;
5690;SDS011;2870;42.680;23.364;2022-08-14T12:24:56;9.00;;;7.10;;
5690;SDS011;2870;42.680;23.364;2022-08-14T12:27:33;9.90;;;7.60;;
5690;SDS011;2870;42.680;23.364;2022-08-14T12:30:02;8.43;;;6.97;;
5690;SDS011;2870;42.680;23.364;2022-08-14T12:32:37;8.80;;;7.13;;
5690;SDS011;2870;42.680;23.364;2022-08-14T12:35:05;9.03;;;7.53;;
5690;SDS011;2870;42.680;23.364;2022-08-14T12:37:32;10.80;;;8.67;;
5690;SDS011;2870;42.680;23.364;2022-08-14T12:40:10;12.90;;;8.13;;
5690;SDS011;2870;42.680;23.364;2022-08-14T12:42:38;15.10;;;8.30;;
5690;SDS011;2870;42.680;23.364;2022-08-14T12:45:07;11.87;;;8.20;;
5690;SDS011;2870;42.680;23.364;2022-08-14T12:47:37;10.47;;;8.50;;
5690;SDS011;2870;42.680;23.364;2022-08-14T12:50:05;11.87;;;9.50;;
5690;SDS011;2870;42.680;23.364;2022-08-14T12:52:33;12.80;;;9.40;;
5690;SDS011;2870;42.680;23.364;2022-08-14T12:55:03;11.30;;;9.30;;
5690;SDS011;2870;42.680;23.364;2022-08-14T12:57:33;11.13;;;8.80;;
5690;SDS011;2870;42.680;23.364;2022-08-14T13:00:12;11.00;;;8.40;;
5690;SDS011;2870;42.680;23.364;2022-08-14T13:02:42;11.20;;;8.77;;
5690;SDS011;2870;42.680;23.364;2022-08-14T13:05:11;10.63;;;7.67;;
5690;SDS011;2870;42.680;23.364;2022-08-14T13:07:39;13.33;;;9.10;;
5690;SDS011;2870;42.680;23.364;2022-08-14T13:10:07;11.83;;;9.40;;
5690;SDS011;2870;42.680;23.364;2022-08-14T13:12:37;12.20;;;9.60;;
5690;SDS011;2870;42.680;23.364;2022-08-14T13:15:05;10.83;;;8.80;;
5690;SDS011;2870;42.680;23.364;2022-08-14T13:17:38;16.87;;;10.00;;
5690;SDS011;2870;42.680;23.364;2022-08-14T13:20:07;11.90;;;8.90;;
5690;SDS011;2870;42.680;23.364;2022-08-14T13:22:36;12.67;;;10.07;;
5690;SDS011;2870;42.680;23.364;2022-08-14T13:25:06;13.10;;;10.07;;
5690;SDS011;2870;42.680;23.364;2022-08-14T13:27:34;12.03;;;9.50;;
5690;SDS011;2870;42.680;23.364;2022-08-14T13:30:03;13.67;;;9.83;;
5690;SDS011;2870;42.680;23.364;2022-08-14T13:32:36;13.47;;;10.33;;
5690;SDS011;2870;42.680;23.364;2022-08-14T13:35:05;14.70;;;10.27;;
5690;SDS011;2870;42.680;23.364;2022-08-14T13:37:32;13.97;;;9.80;;
5690;SDS011;2870;42.680;23.364;2022-08-14T13:39:59;12.67;;;10.17;;
5690;SDS011;2870;42.680;23.364;2022-08-14T13:42:26;12.77;;;10.47;;
5690;SDS011;2870;42.680;23.364;2022-08-14T13:44:54;13.50;;;10.10;;
5690;SDS011;2870;42.680;23.364;2022-08-14T13:47:23;12.80;;;9.97;;
5690;SDS011;2870;42.680;23.364;2022-08-14T13:49:55;11.47;;;9.47;;
5690;SDS011;2870;42.680;23.364;2022-08-14T13:52:26;11.30;;;9.67;;
5690;SDS011;2870;42.680;23.364;2022-08-14T13:54:57;12.83;;;9.53;;
5690;SDS011;2870;42.680;23.364;2022-08-14T13:57:27;12.20;;;9.47;;
5690;SDS011;2870;42.680;23.364;2022-08-14T13:59:56;12.30;;;10.03;;
5690;SDS011;2870;42.680;23.364;2022-08-14T14:02:27;12.87;;;10.40;;
5690;SDS011;2870;42.680;23.364;2022-08-14T14:04:57;14.67;;;10.77;;
5690;SDS011;2870;42.680;23.364;2022-08-14T14:07:26;15.07;;;10.33;;
5690;SDS011;2870;42.680;23.364;2022-08-14T14:09:54;11.97;;;9.77;;
5690;SDS011;2870;42.680;23.364;2022-08-14T14:12:22;14.57;;;10.70;;
5690;SDS011;2870;42.680;23.364;2022-08-14T14:14:50;15.70;;;10.67;;
5690;SDS011;2870;42.680;23.364;2022-08-14T14:17:18;13.10;;;9.50;;
5690;SDS011;2870;42.680;23.364;2022-08-14T14:19:48;12.90;;;10.13;;
5690;SDS011;2870;42.680;23.364;2022-08-14T14:22:17;12.10;;;9.20;;
5690;SDS011;2870;42.680;23.364;2022-08-14T14:24:44;21.50;;;10.20;;
5690;SDS011;2870;42.680;23.364;2022-08-14T14:27:12;12.90;;;9.60;;
5690;SDS011;2870;42.680;23.364;2022-08-14T14:29:43;12.93;;;8.30;;
5690;SDS011;2870;42.680;23.364;2022-08-14T14:32:15;15.17;;;7.80;;
5690;SDS011;2870;42.680;23.364;2022-08-14T14:34:43;14.70;;;7.40;;
5690;SDS011;2870;42.680;23.364;2022-08-14T14:37:11;9.50;;;7.30;;
5690;SDS011;2870;42.680;23.364;2022-08-14T14:39:41;11.47;;;8.13;;
5690;SDS011;2870;42.680;23.364;2022-08-14T14:42:08;9.53;;;7.67;;
5690;SDS011;2870;42.680;23.364;2022-08-14T14:44:36;9.33;;;7.03;;
5690;SDS011;2870;42.680;23.364;2022-08-14T14:47:08;11.83;;;7.60;;
5690;SDS011;2870;42.680;23.364;2022-08-14T14:49:35;11.07;;;8.13;;
5690;SDS011;2870;42.680;23.364;2022-08-14T14:52:04;12.90;;;8.00;;
5690;SDS011;2870;42.680;23.364;2022-08-14T14:54:33;12.87;;;7.40;;
5690;SDS011;2870;42.680;23.364;2022-08-14T14:57:02;13.77;;;7.00;;